Time;durP1;ratioP1;P1;durP2;ratioP2;P2;SDS_P1;SDS_P2;PMS_P1;PMS_P2;Temp;Humidity;BMP_temperature;BMP_pressure;BME280_temperature;BME280_humidity;BME280_pressure;Samples;Min_cycle;Max_cycle;Signal;HPM_P1;HPM_P2
2022/12/10 00:01:14;;;;;;;23.25;15.60;;;2.50;99.90;;;;;;4949297;29;20180;-75
2022/12/10 00:03:40;;;;;;;20.60;15.85;;;2.50;99.90;;;;;;4950000;29;20184;-75
2022/12/10 00:06:10;;;;;;;21.50;16.17;;;2.50;99.90;;;;;;4951608;28;20192;-76
2022/12/10 00:08:36;;;;;;;22.25;14.80;;;2.50;99.90;;;;;;4954656;28;21017;-76
2022/12/10 00:11:07;;;;;;;21.43;16.13;;;2.50;99.90;;;;;;4954174;28;20203;-75
2022/12/10 00:13:34;;;;;;;19.83;14.65;;;2.40;99.90;;;;;;4957488;28;20606;-76
2022/12/10 00:16:00;;;;;;;26.27;14.82;;;2.40;99.90;;;;;;4943348;29;20599;-75
2022/12/10 00:18:26;;;;;;;20.73;14.45;;;2.30;99.90;;;;;;4937464;29;20173;-75
2022/12/10 00:20:52;;;;;;;20.07;15.90;;;2.30;99.90;;;;;;4952751;29;20187;-75
2022/12/10 00:23:18;;;;;;;21.87;15.53;;;2.30;99.90;;;;;;4952944;28;20281;-76
2022/12/10 00:25:43;;;;;;;23.67;15.10;;;2.20;99.90;;;;;;4952954;28;20195;-76
2022/12/10 00:28:09;;;;;;;22.03;16.73;;;2.20;99.90;;;;;;4954205;28;20203;-76
2022/12/10 00:30:35;;;;;;;21.77;15.70;;;2.20;99.90;;;;;;4936543;28;20172;-75
2022/12/10 00:33:00;;;;;;;21.10;14.70;;;2.20;99.90;;;;;;4936745;29;20165;-76
2022/12/10 00:35:26;;;;;;;19.98;14.60;;;2.10;99.90;;;;;;4952755;29;20530;-75
2022/12/10 00:37:52;;;;;;;19.67;15.43;;;2.10;99.90;;;;;;4937005;29;20172;-75
2022/12/10 00:40:18;;;;;;;21.67;16.00;;;2.10;99.90;;;;;;4936806;29;20184;-75
2022/12/10 00:42:43;;;;;;;22.23;15.73;;;2.00;99.90;;;;;;4951891;28;20220;-75
2022/12/10 00:45:09;;;;;;;25.40;17.27;;;2.00;99.90;;;;;;4952801;28;20195;-75
2022/12/10 00:47:35;;;;;;;20.93;15.20;;;1.90;99.90;;;;;;4952697;28;20243;-75
2022/12/10 00:50:00;;;;;;;20.37;15.63;;;1.90;99.90;;;;;;4952724;28;20172;-76
2022/12/10 00:52:26;;;;;;;25.23;17.60;;;1.90;99.90;;;;;;4937462;28;20649;-76
2022/12/10 00:54:52;;;;;;;20.47;14.77;;;1.90;99.90;;;;;;4954358;28;20630;-75
2022/12/10 00:57:18;;;;;;;24.90;15.97;;;1.90;99.90;;;;;;4952351;28;20592;-75
2022/12/10 00:59:43;;;;;;;19.17;15.80;;;1.90;99.90;;;;;;4953918;28;20708;-75
2022/12/10 01:02:09;;;;;;;20.93;14.57;;;1.90;99.90;;;;;;4951692;28;20184;-75
2022/12/10 01:04:35;;;;;;;19.80;16.00;;;1.90;99.90;;;;;;4941215;28;20212;-76
2022/12/10 01:07:00;;;;;;;21.93;16.63;;;1.90;99.90;;;;;;4963255;28;20699;-76
2022/12/10 01:09:29;;;;;;;26.48;18.17;;;1.90;99.90;;;;;;4973178;28;20174;-76
2022/12/10 01:11:57;;;;;;;20.50;14.60;;;1.80;99.90;;;;;;4971850;28;20210;-76
2022/12/10 01:14:26;;;;;;;21.10;14.77;;;1.80;99.90;;;;;;4972844;28;20196;-76
2022/12/10 01:16:57;;;;;;;23.92;17.88;;;1.80;99.90;;;;;;4955098;28;20178;-75
2022/12/10 01:19:23;;;;;;;21.67;14.77;;;1.80;99.90;;;;;;4972924;28;20184;-76
2022/12/10 01:21:53;;;;;;;19.77;14.80;;;1.80;99.90;;;;;;4970811;28;20292;-76
2022/12/10 01:24:20;;;;;;;21.45;16.30;;;1.70;99.90;;;;;;4970899;28;20615;-76
2022/12/10 01:26:46;;;;;;;22.25;16.15;;;1.70;99.90;;;;;;4971497;28;20535;-76
2022/12/10 01:29:12;;;;;;;21.57;16.67;;;1.70;99.90;;;;;;4972804;28;20176;-76
2022/12/10 01:31:39;;;;;;;21.38;16.33;;;1.70;99.90;;;;;;4973366;28;20195;-76
2022/12/10 01:34:07;;;;;;;21.48;15.43;;;1.70;99.90;;;;;;4954919;28;20187;-76
2022/12/10 01:36:36;;;;;;;19.10;14.73;;;1.70;99.90;;;;;;4971336;28;20168;-76
2022/12/10 01:39:05;;;;;;;18.42;14.85;;;1.70;99.90;;;;;;4938909;28;20524;-76
2022/12/10 01:42:01;;;;;;;21.90;14.70;;;1.70;99.90;;;;;;4970323;28;20160;-76
2022/12/10 01:44:27;;;;;;;23.92;15.05;;;1.60;99.90;;;;;;4969695;28;20261;-76
2022/12/10 01:46:59;;;;;;;22.47;16.57;;;1.70;99.90;;;;;;4971045;28;20163;-75
2022/12/10 01:49:36;;;;;;;22.05;15.70;;;1.70;99.90;;;;;;4970904;28;20271;-76
2022/12/10 01:52:05;;;;;;;21.48;15.63;;;1.60;99.90;;;;;;4970346;28;20238;-76
2022/12/10 01:54:33;;;;;;;22.67;15.57;;;1.70;99.90;;;;;;4954255;28;20215;-76
2022/12/10 01:57:03;;;;;;;20.00;15.25;;;1.60;99.90;;;;;;4971007;28;20242;-76
2022/12/10 01:59:30;;;;;;;21.80;17.20;;;1.70;99.90;;;;;;4954558;28;20175;-75
2022/12/10 02:02:14;;;;;;;20.02;15.43;;;1.70;99.90;;;;;;4970167;28;20183;-76
2022/12/10 02:04:57;;;;;;;20.15;14.95;;;1.70;99.90;;;;;;4970847;28;20219;-75
2022/12/10 02:07:57;;;;;;;23.33;16.88;;;1.70;99.90;;;;;;4974089;28;20563;-76
2022/12/10 02:10:50;;;;;;;22.92;15.60;;;1.60;99.90;;;;;;4969955;28;20752;-76
2022/12/10 02:13:39;;;;;;;20.70;15.32;;;1.60;99.90;;;;;;4982683;28;20174;-76
2022/12/10 02:16:34;;;;;;;21.08;14.32;;;1.60;99.90;;;;;;5014272;28;20170;-76
2022/12/10 02:19:52;;;;;;;17.83;13.10;;;1.60;99.90;;;;;;5001354;28;20178;-75
2022/12/10 02:22:56;;;;;;;19.90;14.18;;;1.50;99.90;;;;;;4973441;28;20265;-76
2022/12/10 02:25:52;;;;;;;17.58;12.88;;;1.50;99.90;;;;;;4988546;28;20317;-75
2022/12/10 02:28:48;;;;;;;18.65;14.65;;;1.40;99.90;;;;;;4987030;28;20199;-76
2022/12/10 02:31:40;;;;;;;19.92;14.48;;;1.40;99.90;;;;;;4973360;28;20249;-76
2022/12/10 02:34:30;;;;;;;19.77;14.48;;;1.40;99.90;;;;;;4961624;28;20183;-75
2022/12/10 02:37:43;;;;;;;19.35;13.43;;;1.30;99.90;;;;;;4973770;28;20238;-76
2022/12/10 02:40:36;;;;;;;20.23;15.57;;;1.30;99.90;;;;;;4988130;28;20225;-76
2022/12/10 02:43:27;;;;;;;20.17;15.25;;;1.30;99.90;;;;;;4987546;28;20174;-76
2022/12/10 02:46:13;;;;;;;20.90;14.88;;;1.30;99.90;;;;;;4976786;28;20313;-75
2022/12/10 02:49:03;;;;;;;20.02;13.43;;;1.30;99.90;;;;;;4961372;28;20199;-76
2022/12/10 02:51:49;;;;;;;19.35;13.60;;;1.20;99.90;;;;;;4986277;28;20225;-76
2022/12/10 02:54:41;;;;;;;21.80;15.20;;;1.20;99.90;;;;;;4987631;28;20213;-76
2022/12/10 02:57:50;;;;;;;18.92;14.20;;;1.30;99.90;;;;;;4988313;28;20266;-76
2022/12/10 03:01:02;;;;;;;19.27;13.75;;;1.30;99.90;;;;;;4960323;28;20213;-76
2022/12/10 03:04:10;;;;;;;16.63;13.13;;;1.30;99.90;;;;;;4986346;28;20201;-76
2022/12/10 03:07:02;;;;;;;19.55;13.10;;;1.30;99.90;;;;;;4960721;28;20179;-76
2022/12/10 03:09:58;;;;;;;19.65;14.18;;;1.40;99.90;;;;;;4988607;28;20536;-76
2022/12/10 03:12:50;;;;;;;17.55;12.90;;;1.50;99.90;;;;;;4972665;28;20167;-76
2022/12/10 03:15:40;;;;;;;19.90;13.63;;;1.50;99.90;;;;;;4986769;28;20214;-76
2022/12/10 03:18:28;;;;;;;21.10;14.45;;;1.60;99.90;;;;;;4987585;28;20647;-76
2022/12/10 03:21:16;;;;;;;19.38;13.80;;;1.70;99.90;;;;;;4987827;28;20225;-76
2022/12/10 03:24:03;;;;;;;18.23;12.80;;;1.80;99.90;;;;;;4987967;28;20187;-76
2022/12/10 03:26:50;;;;;;;19.75;13.45;;;1.90;99.90;;;;;;4988467;28;20703;-76
2022/12/10 03:29:46;;;;;;;17.42;12.95;;;2.00;99.90;;;;;;4988380;28;20175;-76
2022/12/10 03:32:32;;;;;;;17.13;12.50;;;2.10;99.90;;;;;;4987504;28;20898;-76
2022/12/10 03:35:22;;;;;;;20.38;14.05;;;2.20;99.90;;;;;;4987458;28;20195;-75
2022/12/10 03:38:09;;;;;;;23.95;15.45;;;2.30;99.90;;;;;;4987585;28;20167;-76
2022/12/10 03:40:55;;;;;;;17.13;12.63;;;2.30;99.90;;;;;;4990940;28;20258;-76
2022/12/10 03:43:56;;;;;;;17.38;12.73;;;2.40;99.90;;;;;;4992112;28;20260;-76
2022/12/10 03:46:42;;;;;;;17.10;13.07;;;2.40;99.90;;;;;;4991963;28;20175;-76
2022/12/10 03:49:28;;;;;;;15.77;12.32;;;2.50;99.90;;;;;;4991822;28;20188;-76
2022/12/10 03:52:14;;;;;;;17.15;13.18;;;2.60;99.90;;;;;;4991107;28;20166;-75
2022/12/10 03:55:00;;;;;;;16.10;12.13;;;2.60;99.90;;;;;;4991432;28;20195;-76
2022/12/10 03:57:47;;;;;;;18.75;13.93;;;2.70;99.90;;;;;;4990692;28;20171;-76
2022/12/10 04:00:34;;;;;;;21.33;13.75;;;2.70;99.90;;;;;;4979305;28;20179;-76
2022/12/10 04:03:19;;;;;;;17.23;13.45;;;2.70;99.90;;;;;;4990191;28;20643;-76
2022/12/10 04:06:09;;;;;;;20.00;14.40;;;2.70;99.90;;;;;;4977819;28;20175;-76
2022/12/10 04:08:55;;;;;;;20.52;13.18;;;2.80;99.90;;;;;;4989894;28;20261;-76
2022/12/10 04:11:42;;;;;;;21.13;15.00;;;2.80;99.90;;;;;;5000029;28;20178;-76
2022/12/10 04:17:33;;;;;;;17.33;13.15;;;2.80;99.90;;;;;;5010031;28;20205;-76
2022/12/10 04:29:33;;;;;;;16.38;11.75;;;2.80;99.90;;;;;;5009619;28;20247;-76
2022/12/10 04:32:19;;;;;;;15.57;12.63;;;2.80;99.90;;;;;;5009215;28;20922;-75
2022/12/10 04:35:06;;;;;;;17.77;12.30;;;2.80;99.90;;;;;;4995002;28;20198;-76
2022/12/10 04:37:52;;;;;;;17.23;12.55;;;2.90;99.90;;;;;;5013139;28;20189;-76
2022/12/10 04:40:38;;;;;;;17.55;11.73;;;2.90;99.90;;;;;;4995321;28;20197;-76
2022/12/10 04:43:24;;;;;;;15.13;11.63;;;2.90;99.90;;;;;;4995187;28;20527;-76
2022/12/10 04:46:10;;;;;;;17.20;12.63;;;2.90;99.90;;;;;;5009381;28;20170;-75
2022/12/10 04:48:56;;;;;;;16.98;13.35;;;2.90;99.90;;;;;;5008974;28;20241;-76
2022/12/10 04:51:42;;;;;;;18.63;14.05;;;2.90;99.90;;;;;;5007226;28;20174;-76
2022/12/10 04:54:29;;;;;;;20.98;13.50;;;2.90;99.90;;;;;;5009182;28;20757;-76
2022/12/10 04:57:15;;;;;;;17.48;13.18;;;2.90;99.90;;;;;;5009022;28;20174;-76
2022/12/10 05:00:01;;;;;;;16.58;13.15;;;3.00;99.90;;;;;;5009168;28;20178;-76
2022/12/10 05:02:50;;;;;;;17.05;13.10;;;3.00;99.90;;;;;;5008188;28;20846;-76
2022/12/10 05:05:36;;;;;;;20.20;15.02;;;3.00;99.90;;;;;;5009581;28;20198;-76
2022/12/10 05:08:22;;;;;;;18.30;13.45;;;3.10;99.90;;;;;;4995045;28;20208;-76
2022/12/10 05:11:14;;;;;;;16.25;12.23;;;3.10;99.90;;;;;;5008759;28;20170;-76
2022/12/10 05:14:00;;;;;;;21.25;14.00;;;3.10;99.90;;;;;;5013166;28;20187;-76
2022/12/10 05:16:49;;;;;;;19.13;14.25;;;3.10;99.90;;;;;;5008729;28;20565;-76
2022/12/10 05:19:35;;;;;;;19.33;13.38;;;3.10;99.90;;;;;;4994780;28;20170;-75
2022/12/10 05:25:26;;;;;;;18.33;12.63;;;3.20;99.90;;;;;;5008409;28;20272;-75
2022/12/10 05:28:11;;;;;;;19.83;14.05;;;3.10;99.90;;;;;;5008608;28;20206;-75
2022/12/10 05:30:58;;;;;;;21.10;13.15;;;3.20;99.90;;;;;;5008263;28;20487;-75
2022/12/10 05:33:44;;;;;;;21.00;13.27;;;3.20;99.90;;;;;;5008484;28;20198;-75
2022/12/10 05:36:31;;;;;;;19.27;14.32;;;3.20;99.90;;;;;;5008617;28;20162;-75
2022/12/10 05:39:17;;;;;;;17.15;12.60;;;3.30;99.90;;;;;;5007763;28;20712;-76
2022/12/10 05:42:04;;;;;;;16.70;12.77;;;3.30;99.90;;;;;;4993599;28;20601;-76
2022/12/10 05:44:50;;;;;;;23.13;14.60;;;3.30;99.90;;;;;;5008500;28;20225;-76
2022/12/10 05:47:36;;;;;;;20.60;13.20;;;3.40;99.90;;;;;;5006754;28;20201;-76
2022/12/10 05:50:22;;;;;;;19.15;14.82;;;3.40;99.90;;;;;;5007175;28;20170;-76
2022/12/10 05:53:08;;;;;;;19.55;15.10;;;3.40;99.90;;;;;;5010348;28;20249;-76
2022/12/10 05:56:09;;;;;;;19.10;14.10;;;3.40;99.90;;;;;;5008787;28;20236;-76
2022/12/10 05:59:00;;;;;;;19.25;14.02;;;3.50;99.90;;;;;;5008213;28;20258;-76
2022/12/10 06:01:47;;;;;;;20.65;14.80;;;3.50;99.90;;;;;;5007285;28;20660;-76
2022/12/10 06:04:33;;;;;;;21.30;15.82;;;3.50;99.90;;;;;;5008769;28;20609;-76
2022/12/10 06:07:19;;;;;;;20.20;15.20;;;3.50;99.90;;;;;;5008395;28;20229;-75
2022/12/10 06:10:05;;;;;;;19.35;13.57;;;3.60;99.90;;;;;;5008900;28;20204;-75
2022/12/10 06:12:51;;;;;;;19.58;14.65;;;3.60;99.90;;;;;;4993616;28;20177;-75
2022/12/10 06:15:40;;;;;;;24.65;16.35;;;3.60;99.90;;;;;;4993796;28;20767;-77
2022/12/10 06:18:26;;;;;;;18.02;13.77;;;3.60;99.90;;;;;;5007129;28;20192;-75
2022/12/10 06:21:16;;;;;;;19.10;13.02;;;3.60;99.90;;;;;;5007680;28;20803;-75
2022/12/10 06:24:02;;;;;;;19.13;14.20;;;3.70;99.90;;;;;;5008188;28;20198;-75
2022/12/10 06:26:48;;;;;;;20.20;14.38;;;3.70;99.90;;;;;;5008091;28;20642;-74
2022/12/10 06:29:34;;;;;;;18.88;14.63;;;3.70;99.90;;;;;;5011874;28;20167;-76
2022/12/10 06:32:20;;;;;;;22.65;15.45;;;3.70;99.90;;;;;;4993258;28;20167;-76
2022/12/10 06:35:06;;;;;;;16.98;12.98;;;3.80;99.90;;;;;;5007702;28;20189;-76
2022/12/10 06:37:52;;;;;;;18.25;13.68;;;3.80;99.90;;;;;;5007374;28;20182;-76
2022/12/10 06:40:40;;;;;;;18.80;15.90;;;3.80;99.90;;;;;;5007240;28;20693;-76
2022/12/10 06:43:29;;;;;;;18.73;13.02;;;3.80;99.90;;;;;;5007177;28;20174;-76
2022/12/10 06:46:17;;;;;;;20.40;14.30;;;3.80;99.90;;;;;;5008030;28;20178;-76
2022/12/10 06:49:03;;;;;;;20.10;13.93;;;3.80;99.90;;;;;;5006925;28;20198;-76
2022/12/10 06:51:49;;;;;;;19.33;14.60;;;3.80;99.90;;;;;;5006501;28;20167;-76
2022/12/10 06:54:36;;;;;;;15.90;13.10;;;3.80;99.90;;;;;;4993692;28;20213;-75
2022/12/10 06:57:22;;;;;;;18.75;15.05;;;3.80;99.90;;;;;;5007724;28;20170;-76
2022/12/10 07:00:10;;;;;;;18.20;13.30;;;3.80;99.90;;;;;;5008318;28;20700;-76
2022/12/10 07:02:56;;;;;;;17.17;11.52;;;3.80;99.90;;;;;;5006998;28;20615;-76
2022/12/10 07:05:42;;;;;;;18.27;12.90;;;3.80;99.90;;;;;;5008783;28;20198;-76
2022/12/10 07:08:28;;;;;;;18.67;14.82;;;3.80;99.90;;;;;;5007797;28;20209;-74
2022/12/10 07:11:16;;;;;;;19.27;14.70;;;3.80;99.90;;;;;;5005664;28;20261;-75
2022/12/10 07:14:02;;;;;;;23.27;14.88;;;3.80;99.90;;;;;;5006460;28;20188;-75
2022/12/10 07:16:48;;;;;;;19.77;13.75;;;3.80;99.90;;;;;;5007013;28;20170;-75
2022/12/10 07:19:34;;;;;;;19.10;14.30;;;3.80;99.90;;;;;;4992923;28;20709;-76
2022/12/10 07:22:20;;;;;;;20.23;14.90;;;3.80;99.90;;;;;;5005966;28;20182;-76
2022/12/10 07:25:07;;;;;;;23.35;15.70;;;3.80;99.90;;;;;;5006783;28;20198;-75
2022/12/10 07:27:53;;;;;;;30.00;17.88;;;3.80;99.90;;;;;;5007310;28;20694;-76
2022/12/10 07:30:39;;;;;;;24.27;16.83;;;3.80;99.90;;;;;;5006903;28;20189;-75
2022/12/10 07:33:25;;;;;;;29.60;17.75;;;3.80;99.90;;;;;;4992421;28;20189;-75
2022/12/10 07:36:12;;;;;;;27.98;19.02;;;3.80;99.90;;;;;;4993101;28;20178;-75
2022/12/10 07:38:58;;;;;;;27.38;18.52;;;3.80;99.90;;;;;;5006437;28;20789;-75
2022/12/10 07:41:49;;;;;;;27.90;18.05;;;3.80;99.90;;;;;;5009857;28;20174;-75
2022/12/10 07:44:35;;;;;;;30.95;20.25;;;3.80;99.90;;;;;;5012447;28;20198;-75
2022/12/10 07:47:21;;;;;;;33.95;18.58;;;3.80;99.90;;;;;;5003271;28;20255;-75
2022/12/10 07:50:08;;;;;;;25.67;17.65;;;3.80;99.90;;;;;;5008385;28;20239;-75
2022/12/10 07:52:53;;;;;;;47.17;22.80;;;3.80;99.90;;;;;;5014585;28;20664;-75
2022/12/10 07:55:39;;;;;;;43.00;25.55;;;3.80;99.90;;;;;;4992717;28;20292;-75
2022/12/10 07:58:26;;;;;;;34.80;21.10;;;3.80;99.90;;;;;;5013912;28;20182;-75
2022/12/10 08:01:15;;;;;;;33.55;21.65;;;3.80;99.90;;;;;;5005762;28;20182;-75
2022/12/10 08:04:01;;;;;;;39.35;22.17;;;3.90;99.90;;;;;;4991941;28;20226;-76
2022/12/10 08:06:47;;;;;;;44.42;22.27;;;3.90;99.90;;;;;;5007053;28;20519;-75
2022/12/10 08:09:34;;;;;;;42.53;22.38;;;3.90;99.90;;;;;;5003670;28;20194;-74
2022/12/10 08:12:21;;;;;;;37.45;22.40;;;3.90;99.90;;;;;;5022098;28;20674;-74
2022/12/10 08:15:07;;;;;;;36.28;23.08;;;3.90;99.90;;;;;;5015384;28;20299;-75
2022/12/10 08:17:54;;;;;;;35.28;21.98;;;3.90;99.90;;;;;;5015999;28;20198;-75
2022/12/10 08:20:40;;;;;;;34.60;21.70;;;3.90;99.90;;;;;;4985569;28;20262;-76
2022/12/10 08:23:26;;;;;;;40.60;20.63;;;3.90;99.90;;;;;;5010672;28;20873;-76
2022/12/10 08:26:19;;;;;;;33.42;21.10;;;3.90;99.90;;;;;;5011293;28;20174;-76
2022/12/10 08:29:05;;;;;;;34.33;20.00;;;4.00;99.90;;;;;;5014194;28;20206;-75
2022/12/10 08:31:51;;;;;;;37.05;20.65;;;4.00;99.90;;;;;;5010893;28;20193;-76
2022/12/10 08:34:37;;;;;;;29.10;20.23;;;4.00;99.90;;;;;;4996245;28;20198;-74
2022/12/10 08:37:23;;;;;;;32.58;20.90;;;4.10;99.90;;;;;;4991335;28;20175;-75
2022/12/10 08:40:09;;;;;;;34.83;19.50;;;4.10;99.90;;;;;;4978330;28;20179;-74
2022/12/10 08:42:55;;;;;;;31.05;20.17;;;4.10;99.90;;;;;;4991337;28;20254;-75
2022/12/10 08:45:41;;;;;;;38.20;21.73;;;4.20;99.90;;;;;;5011727;28;20209;-75
2022/12/10 08:48:28;;;;;;;30.63;18.80;;;4.20;99.90;;;;;;5010946;28;20198;-75
2022/12/10 08:51:16;;;;;;;36.80;23.15;;;4.20;99.90;;;;;;5010460;28;20178;-74
2022/12/10 08:54:02;;;;;;;42.55;22.20;;;4.20;99.90;;;;;;4995974;28;20659;-75
2022/12/10 08:56:48;;;;;;;39.65;23.48;;;4.20;99.90;;;;;;5012015;28;20391;-75
2022/12/10 08:59:34;;;;;;;34.75;22.13;;;4.20;99.90;;;;;;5001221;28;20174;-75
2022/12/10 09:02:20;;;;;;;34.20;22.13;;;4.30;99.90;;;;;;5025527;28;20178;-75
2022/12/10 09:05:07;;;;;;;35.90;22.77;;;4.30;99.90;;;;;;5017370;28;20579;-75
2022/12/10 09:07:53;;;;;;;33.90;23.23;;;4.30;99.90;;;;;;5016266;28;20201;-76
2022/12/10 09:10:40;;;;;;;32.53;22.45;;;4.30;99.90;;;;;;4989565;28;20647;-75
2022/12/10 09:13:26;;;;;;;35.70;23.75;;;4.30;99.90;;;;;;4991087;28;20171;-75
2022/12/10 09:16:12;;;;;;;33.05;23.38;;;4.30;99.90;;;;;;4977962;28;20234;-76
2022/12/10 09:18:59;;;;;;;34.25;21.50;;;4.30;99.90;;;;;;4992119;28;20178;-75
2022/12/10 09:21:47;;;;;;;33.08;22.30;;;4.40;99.90;;;;;;4990803;28;20199;-75
2022/12/10 09:24:33;;;;;;;38.45;23.55;;;4.40;99.90;;;;;;4991298;28;20266;-76
2022/12/10 09:27:20;;;;;;;39.10;24.35;;;4.40;99.90;;;;;;4991260;28;20660;-75
2022/12/10 09:30:09;;;;;;;39.55;23.48;;;4.50;99.90;;;;;;4990625;28;20616;-76
2022/12/10 09:32:55;;;;;;;39.30;24.00;;;4.50;99.90;;;;;;4990193;28;20584;-76
2022/12/10 09:35:42;;;;;;;43.30;25.98;;;4.60;99.90;;;;;;4994623;28;20194;-76
2022/12/10 09:38:30;;;;;;;41.83;26.05;;;4.60;99.90;;;;;;4992246;28;20186;-76
2022/12/10 09:41:35;;;;;;;38.45;25.63;;;4.70;99.90;;;;;;4989806;28;20224;-76
2022/12/10 09:44:31;;;;;;;35.20;23.85;;;4.80;99.90;;;;;;4985551;28;20204;-76
2022/12/10 09:47:18;;;;;;;37.20;21.98;;;4.90;99.90;;;;;;4983050;28;20193;-76
2022/12/10 09:50:21;;;;;;;43.38;25.23;;;4.90;99.90;;;;;;5003528;28;20205;-77
2022/12/10 09:53:14;;;;;;;34.78;22.20;;;5.00;99.90;;;;;;5019430;28;20434;-75
2022/12/10 09:56:00;;;;;;;36.58;23.20;;;5.10;99.90;;;;;;5010472;28;20189;-77
2022/12/10 09:58:47;;;;;;;37.58;24.25;;;5.20;99.90;;;;;;5018896;28;20261;-76
2022/12/10 10:01:34;;;;;;;37.75;24.85;;;5.40;99.90;;;;;;5007137;28;20182;-75
2022/12/10 10:04:20;;;;;;;41.17;25.08;;;5.50;99.90;;;;;;5009669;28;20635;-78
2022/12/10 10:07:09;;;;;;;39.03;26.60;;;5.60;99.90;;;;;;5001982;28;20186;-76
2022/12/10 10:09:59;;;;;;;39.38;26.05;;;5.70;99.90;;;;;;5009348;28;20245;-77
2022/12/10 10:12:48;;;;;;;43.35;28.00;;;5.80;99.90;;;;;;5009686;28;20653;-77
2022/12/10 10:15:39;;;;;;;40.50;26.98;;;5.90;99.90;;;;;;5009649;28;20190;-77
2022/12/10 10:18:35;;;;;;;37.63;24.90;;;6.00;99.90;;;;;;5009368;28;20174;-78
2022/12/10 10:21:23;;;;;;;43.70;28.05;;;6.10;99.90;;;;;;4993555;28;20194;-77
2022/12/10 10:24:16;;;;;;;40.00;26.83;;;6.10;99.90;;;;;;5009997;28;20225;-78
2022/12/10 10:27:17;;;;;;;40.97;25.88;;;6.10;99.90;;;;;;4995304;28;20178;-77
2022/12/10 10:30:04;;;;;;;40.92;27.25;;;6.10;99.90;;;;;;5015592;28;20170;-77
2022/12/10 10:32:56;;;;;;;34.80;25.40;;;6.10;99.90;;;;;;5007338;28;20166;-77
2022/12/10 10:35:46;;;;;;;42.33;27.38;;;6.10;99.90;;;;;;5007388;28;20202;-76
2022/12/10 10:38:32;;;;;;;38.47;27.02;;;6.00;99.90;;;;;;5009218;28;20181;-77
2022/12/10 10:41:19;;;;;;;42.25;28.25;;;5.90;99.90;;;;;;5009502;28;20213;-77
2022/12/10 10:44:15;;;;;;;41.70;26.40;;;5.80;99.90;;;;;;5004012;28;20202;-77
2022/12/10 10:47:02;;;;;;;37.37;27.10;;;5.70;99.90;;;;;;5010481;28;20635;-77
2022/12/10 10:49:48;;;;;;;37.78;24.88;;;5.70;99.90;;;;;;5007610;28;20178;-78
2022/12/10 10:52:38;;;;;;;40.83;26.00;;;5.70;99.90;;;;;;5007282;28;20646;-77
2022/12/10 10:55:35;;;;;;;45.15;29.83;;;5.70;99.90;;;;;;5017615;28;20198;-78
2022/12/10 10:58:22;;;;;;;43.08;27.35;;;5.70;99.90;;;;;;5008382;28;20174;-76
2022/12/10 11:01:08;;;;;;;40.38;27.58;;;5.70;99.90;;;;;;5005912;28;20177;-76
2022/12/10 11:03:58;;;;;;;34.92;25.70;;;5.70;99.90;;;;;;5002335;28;20205;-76
2022/12/10 11:06:45;;;;;;;33.58;25.17;;;5.70;99.90;;;;;;5013183;28;20270;-76
2022/12/10 11:09:33;;;;;;;33.15;24.38;;;5.70;99.90;;;;;;5009245;28;20174;-76
2022/12/10 11:12:39;;;;;;;36.67;25.15;;;5.80;99.90;;;;;;4977025;28;20273;-76
2022/12/10 11:15:30;;;;;;;39.47;27.52;;;5.70;99.90;;;;;;5016396;28;20202;-76
2022/12/10 11:18:26;;;;;;;43.63;28.58;;;5.80;99.90;;;;;;5021099;28;20182;-76
2022/12/10 11:21:12;;;;;;;41.00;24.42;;;5.70;99.90;;;;;;5016777;28;20216;-76
2022/12/10 11:23:59;;;;;;;34.17;23.23;;;5.70;99.90;;;;;;4993247;28;20202;-76
2022/12/10 11:26:57;;;;;;;38.00;27.13;;;5.70;99.90;;;;;;5009517;28;20173;-76
2022/12/10 11:29:55;;;;;;;41.85;24.17;;;5.70;99.90;;;;;;4981758;28;20558;-76
2022/12/10 11:33:15;;;;;;;47.33;27.15;;;5.70;99.90;;;;;;5007663;28;20635;-76
2022/12/10 11:36:30;;;;;;;40.42;26.77;;;5.90;99.90;;;;;;5008438;28;20166;-75
2022/12/10 11:39:37;;;;;;;33.78;25.15;;;5.90;99.90;;;;;;5007789;28;20186;-76
2022/12/10 11:42:40;;;;;;;33.05;21.40;;;5.80;99.90;;;;;;5000627;28;20728;-76
2022/12/10 11:46:05;;;;;;;33.95;22.70;;;5.70;99.90;;;;;;5009124;28;20198;-76
2022/12/10 11:49:17;;;;;;;28.45;19.88;;;5.70;99.90;;;;;;5007575;28;20289;-76
2022/12/10 11:52:15;;;;;;;33.35;20.42;;;5.60;99.90;;;;;;5003289;28;20217;-76
2022/12/10 11:55:16;;;;;;;34.55;20.17;;;5.50;99.90;;;;;;5007917;28;20218;-76
2022/12/10 11:58:33;;;;;;;34.95;20.27;;;5.50;99.90;;;;;;5009403;28;20205;-75
2022/12/10 12:01:40;;;;;;;30.08;19.80;;;5.40;99.90;;;;;;5009725;28;20313;-76
2022/12/10 12:04:38;;;;;;;30.40;21.15;;;5.50;99.90;;;;;;4999091;28;20272;-75
2022/12/10 12:07:47;;;;;;;31.55;20.90;;;5.50;99.90;;;;;;5011955;28;20201;-76
2022/12/10 12:10:48;;;;;;;31.00;19.67;;;5.40;99.90;;;;;;5010171;28;20589;-76
2022/12/10 12:13:45;;;;;;;27.45;17.80;;;5.40;99.90;;;;;;5011620;28;20244;-75
2022/12/10 12:16:43;;;;;;;22.92;15.82;;;5.40;99.90;;;;;;5011203;28;20237;-76
2022/12/10 12:19:37;;;;;;;26.17;17.52;;;5.50;99.90;;;;;;4997121;28;20178;-75
2022/12/10 12:22:30;;;;;;;26.42;15.20;;;5.50;99.90;;;;;;5011193;28;20178;-76
2022/12/10 12:25:38;;;;;;;25.35;16.75;;;5.60;99.90;;;;;;5011820;28;20198;-76
2022/12/10 12:28:38;;;;;;;26.38;17.83;;;5.70;99.90;;;;;;5011744;28;20568;-76
2022/12/10 12:31:32;;;;;;;25.63;18.40;;;5.90;99.90;;;;;;5010121;28;20202;-76
2022/12/10 12:34:24;;;;;;;27.38;18.67;;;6.00;99.90;;;;;;5011863;28;20187;-76
2022/12/10 12:37:14;;;;;;;21.85;17.13;;;6.10;99.90;;;;;;5011173;28;20188;-76
2022/12/10 12:40:12;;;;;;;25.50;18.67;;;6.20;99.90;;;;;;5011697;28;20513;-76
2022/12/10 12:43:01;;;;;;;27.40;20.20;;;6.20;99.90;;;;;;5014577;28;20205;-76
2022/12/10 12:45:54;;;;;;;24.13;16.50;;;6.20;99.90;;;;;;5011734;28;20274;-76
2022/12/10 12:49:14;;;;;;;31.15;21.27;;;6.20;99.90;;;;;;5010815;28;20252;-75
2022/12/10 12:52:16;;;;;;;31.02;19.00;;;6.20;99.90;;;;;;5010130;28;20181;-76
2022/12/10 12:55:14;;;;;;;33.45;20.25;;;6.20;99.90;;;;;;5011441;28;20198;-76
2022/12/10 12:58:18;;;;;;;27.95;20.88;;;6.20;99.90;;;;;;5010133;28;20174;-75
2022/12/10 13:01:36;;;;;;;26.05;17.58;;;6.10;99.90;;;;;;5010460;28;20170;-75
2022/12/10 13:04:23;;;;;;;28.73;18.20;;;6.20;99.90;;;;;;5010883;28;20222;-76
2022/12/10 13:07:27;;;;;;;30.13;20.00;;;6.30;99.90;;;;;;4996964;28;20178;-75
2022/12/10 13:10:24;;;;;;;25.50;17.30;;;6.40;99.90;;;;;;5010993;28;20175;-76
2022/12/10 13:13:33;;;;;;;30.17;20.23;;;6.40;99.90;;;;;;5010045;28;20179;-75
2022/12/10 13:16:38;;;;;;;26.63;21.10;;;6.40;99.90;;;;;;4997682;28;20180;-75
2022/12/10 13:19:29;;;;;;;27.48;18.85;;;6.50;99.90;;;;;;5014161;28;20170;-76
2022/12/10 13:22:42;;;;;;;29.00;18.92;;;6.50;99.90;;;;;;5009899;28;20191;-76
2022/12/10 13:25:55;;;;;;;28.80;19.38;;;6.50;99.90;;;;;;5009391;28;20198;-76
2022/12/10 13:28:50;;;;;;;26.50;16.75;;;6.50;99.90;;;;;;5010855;28;20281;-76
2022/12/10 13:31:38;;;;;;;27.05;18.92;;;6.50;99.90;;;;;;5010326;28;20221;-76
2022/12/10 13:34:34;;;;;;;26.35;18.50;;;6.50;99.90;;;;;;5009870;28;20737;-76
2022/12/10 13:37:30;;;;;;;25.48;18.35;;;6.50;99.90;;;;;;5010204;28;20214;-76
2022/12/10 13:44:23;;;;;;;30.67;19.30;;;6.60;99.90;;;;;;4996494;28;20170;-76
2022/12/10 13:46:55;;;;;;;26.60;19.17;;;6.60;99.90;;;;;;5010098;28;20228;-76
2022/12/10 13:49:53;;;;;;;25.35;17.90;;;6.60;99.90;;;;;;5009812;28;20185;-76
2022/12/10 13:53:00;;;;;;;28.05;20.30;;;6.60;99.90;;;;;;5009135;28;20213;-76
2022/12/10 13:56:12;;;;;;;21.27;14.57;;;6.50;99.90;;;;;;5011476;28;20210;-75
2022/12/10 13:59:18;;;;;;;21.50;15.07;;;6.50;99.90;;;;;;4992106;28;20186;-76
2022/12/10 14:02:43;;;;;;;23.33;15.70;;;6.30;99.90;;;;;;5008952;28;20174;-76
2022/12/10 14:05:50;;;;;;;21.65;14.75;;;6.20;99.90;;;;;;5011453;28;20229;-76
2022/12/10 14:08:38;;;;;;;19.20;14.30;;;6.10;99.90;;;;;;5013042;28;20217;-76
2022/12/10 14:11:46;;;;;;;20.85;15.00;;;6.10;99.90;;;;;;5015554;28;20181;-75
2022/12/10 14:14:46;;;;;;;21.23;15.10;;;6.00;99.90;;;;;;5011679;28;20188;-75
2022/12/10 14:17:36;;;;;;;22.23;15.98;;;5.90;99.90;;;;;;4993219;28;20182;-75
2022/12/10 14:20:25;;;;;;;25.95;18.30;;;5.90;99.90;;;;;;5007365;28;20182;-75
2022/12/10 14:23:32;;;;;;;20.33;14.48;;;5.90;99.90;;;;;;5003706;28;20218;-76
2022/12/10 14:26:31;;;;;;;26.08;17.63;;;5.90;99.90;;;;;;4996476;28;20173;-75
2022/12/10 14:29:20;;;;;;;26.83;17.52;;;5.80;99.90;;;;;;5028914;28;20208;-75
2022/12/10 14:32:06;;;;;;;26.95;16.83;;;5.70;99.90;;;;;;5028230;28;20170;-75
2022/12/10 14:34:57;;;;;;;27.27;18.40;;;5.70;99.90;;;;;;5019779;28;20205;-75
2022/12/10 14:37:45;;;;;;;31.30;19.10;;;5.70;99.90;;;;;;4990747;28;20638;-76
2022/12/10 14:40:41;;;;;;;25.27;18.00;;;5.70;99.90;;;;;;5006979;28;20353;-77